createdAt,value
2022-10-14T10:58:37.797Z,14.48
2022-10-14T11:04:03.237Z,13.63
2022-10-14T11:09:36.471Z,14.30
2022-10-14T11:15:10.172Z,13.95
2022-10-14T11:20:30.582Z,13.43
2022-10-14T11:25:49.642Z,12.35
2022-10-14T11:31:07.932Z,13.73
2022-10-14T11:36:29.090Z,11.07
2022-10-14T11:41:59.389Z,13.55
2022-10-14T11:47:13.952Z,12.57
2022-10-14T11:52:27.489Z,11.05
2022-10-14T11:57:38.519Z,12.68
2022-10-14T12:02:54.493Z,12.40
2022-10-14T12:08:11.615Z,10.40
2022-10-14T12:13:23.243Z,12.25
2022-10-14T12:18:33.155Z,11.32
2022-10-14T12:23:45.231Z,11.68
2022-10-14T12:28:54.029Z,12.95
2022-10-14T12:34:35.011Z,12.73
2022-10-14T12:39:44.916Z,11.57
2022-10-14T12:44:56.424Z,10.93
2022-10-14T12:50:23.825Z,11.55
2022-10-14T12:55:35.179Z,10.95
2022-10-14T13:00:44.691Z,11.82
2022-10-14T13:05:52.671Z,11.77
2022-10-14T13:11:14.876Z,12.23
2022-10-14T13:17:28.995Z,10.80
2022-10-14T13:22:41.686Z,11.18
2022-10-14T13:28:23.235Z,11.98
2022-10-14T13:33:39.891Z,12.77
2022-10-14T13:38:56.852Z,11.15
2022-10-14T13:44:04.114Z,10.90
2022-10-14T13:54:31.464Z,15.23
2022-10-14T13:59:43.945Z,13.43
2022-10-14T14:05:17.026Z,11.65
2022-10-14T14:10:26.759Z,11.73
2022-10-14T14:15:32.918Z,11.77
2022-10-14T14:20:38.871Z,11.13
2022-10-14T14:26:17.841Z,12.57
2022-10-14T14:31:20.903Z,13.30
2022-10-14T14:36:50.143Z,11.82
2022-10-14T14:42:01.161Z,11.57
2022-10-14T14:47:07.656Z,10.73
2022-10-14T14:52:15.526Z,10.68
2022-10-14T14:57:24.345Z,10.77
2022-10-14T15:02:34.554Z,10.70
2022-10-14T15:07:45.114Z,10.93
2022-10-14T15:12:57.348Z,13.23
2022-10-14T15:18:21.489Z,13.20
2022-10-14T15:23:42.026Z,12.75
2022-10-14T15:29:03.481Z,12.35
2022-10-14T15:34:20.922Z,13.02
2022-10-14T15:39:27.028Z,17.73
2022-10-14T15:44:35.436Z,18.63
2022-10-14T15:49:43.991Z,14.95
2022-10-14T15:54:51.098Z,13.60
2022-10-14T15:59:58.877Z,15.10
2022-10-14T16:05:21.089Z,16.42
2022-10-14T16:10:32.050Z,17.13
2022-10-14T16:15:50.069Z,18.85
2022-10-14T16:20:57.569Z,22.80
2022-10-14T16:26:06.060Z,21.52
2022-10-14T16:31:16.121Z,20.67
2022-10-14T16:36:23.583Z,20.05
2022-10-14T16:41:31.177Z,19.15
2022-10-14T16:46:56.303Z,17.02
2022-10-14T16:52:02.445Z,17.02
2022-10-14T16:57:09.520Z,17.55
2022-10-14T17:02:18.476Z,14.98
2022-10-14T17:07:24.811Z,18.17
2022-10-14T17:12:31.091Z,23.38
2022-10-14T17:17:40.380Z,27.00
2022-10-14T17:22:46.558Z,27.50
2022-10-14T17:27:52.631Z,22.70
2022-10-14T17:33:00.287Z,24.17
2022-10-14T17:38:07.612Z,21.08
2022-10-14T17:43:13.700Z,16.23
2022-10-14T17:48:21.052Z,15.20
2022-10-14T17:53:28.117Z,14.50
2022-10-14T17:58:34.370Z,13.38
2022-10-14T18:03:45.266Z,12.85
2022-10-14T18:08:54.945Z,13.35
2022-10-14T18:14:04.770Z,12.70
2022-10-14T18:19:17.246Z,12.15
2022-10-14T18:24:24.120Z,12.05
2022-10-14T18:29:30.415Z,12.80
2022-10-14T18:34:38.620Z,16.40
2022-10-14T18:39:46.198Z,17.93
2022-10-14T18:44:52.967Z,17.13
2022-10-14T18:50:00.564Z,17.05
2022-10-14T18:55:07.964Z,15.85
2022-10-14T19:00:17.794Z,18.50
2022-10-14T19:05:29.614Z,18.10
2022-10-14T19:10:39.087Z,18.15
2022-10-14T19:15:51.401Z,17.20
2022-10-14T19:21:09.628Z,24.05
2022-10-14T19:26:19.718Z,16.20
2022-10-14T19:31:29.595Z,18.25
2022-10-14T19:36:40.619Z,18.95
2022-10-14T19:41:47.872Z,19.27
2022-10-14T19:46:54.693Z,21.45
2022-10-14T19:52:02.780Z,20.60
2022-10-14T19:57:09.146Z,19.17
2022-10-14T20:02:15.203Z,16.50
2022-10-14T20:07:23.251Z,16.60
2022-10-14T20:12:29.898Z,22.27
2022-10-14T20:17:36.158Z,19.90
2022-10-14T20:22:43.707Z,18.10
2022-10-14T20:27:50.961Z,19.90
2022-10-14T20:32:57.364Z,19.35
2022-10-14T20:38:05.886Z,16.77
2022-10-14T20:43:14.178Z,17.95
2022-10-14T20:48:20.668Z,18.20
2022-10-14T20:53:29.175Z,20.50
2022-10-14T20:58:35.443Z,24.10
2022-10-14T21:03:43.252Z,19.98
2022-10-14T21:08:52.686Z,20.92
2022-10-14T21:20:11.945Z,14.07
2022-10-14T21:25:19.857Z,17.88
2022-10-14T21:30:26.318Z,18.23
2022-10-14T21:35:32.764Z,21.73
2022-10-14T21:40:40.578Z,16.58
2022-10-14T21:45:46.951Z,18.23
2022-10-14T21:51:04.463Z,24.30
2022-10-14T21:56:15.990Z,18.80
2022-10-14T22:01:26.393Z,17.05
2022-10-14T22:06:34.278Z,18.10
2022-10-14T22:11:43.378Z,18.65
2022-10-14T22:16:50.294Z,22.75
2022-10-14T22:21:59.477Z,22.02
2022-10-14T22:27:07.499Z,22.92
2022-10-14T22:32:16.310Z,22.70
2022-10-14T22:42:32.186Z,19.23
2022-10-14T22:47:38.418Z,20.10
2022-10-14T22:52:44.632Z,20.17
2022-10-14T22:57:52.906Z,21.90
2022-10-14T23:02:59.195Z,25.30
2022-10-14T23:08:10.057Z,22.65
2022-10-14T23:13:17.746Z,23.75
2022-10-14T23:18:24.214Z,19.15
2022-10-14T23:23:30.586Z,16.92
2022-10-14T23:28:38.712Z,18.38
2022-10-14T23:33:45.310Z,21.13
2022-10-14T23:38:53.133Z,22.20
2022-10-14T23:44:00.938Z,21.02
2022-10-14T23:49:21.214Z,21.52
2022-10-14T23:54:31.366Z,23.25
2022-10-14T23:59:40.016Z,20.95
